Ashland, Missouri
Current Conditions -  °F | °C
As of 11:54 PM on Friday 19 Dec 2014 (Local Time) from KCOU Reporting Station
Haze Haze  
Wind Chill: 29°   Ceiling: 900
Heat Index: 35°   Visibility: 5mi
Dew Point: 32°   Wind: 7mph
Humidity: 89%   Direction: 130°SE
Pressure: 30.22"   Gusts: NA
Location:  38.77°N, 92.26°W
Report Text: KCOU 200554Z AUTO 13006KT 5SM BR OVC009 02/00 A3022 RMK AO2 SLP240 T00170000 10017 20017 400281006 50000
Loading
Personal Weather Stations






























Interactive Weather Map New forecast layout! Learn more

10-Day Weather Forecast

Advertisements
Track Severe Weather on mobile